createdAt,value
2019-03-18T00:00:32.568Z,96335.91
2019-03-18T00:02:58.888Z,96330.92
2019-03-18T00:05:27.638Z,96325.20
2019-03-18T00:07:53.494Z,96333.25
2019-03-18T00:10:19.356Z,96330.92
2019-03-18T00:12:45.163Z,96322.83
2019-03-18T00:15:11.691Z,96320.74
2019-03-18T00:17:37.547Z,96334.84
2019-03-18T00:20:07.537Z,96335.43
2019-03-18T00:22:33.370Z,96332.08
2019-03-18T00:24:59.194Z,96326.38
2019-03-18T00:27:25.032Z,96332.39
2019-03-18T00:29:50.852Z,96323.47
2019-03-18T00:32:16.708Z,96320.90
2019-03-18T00:34:42.557Z,96329.48
2019-03-18T00:37:08.363Z,96336.41
2019-03-18T00:39:34.554Z,96329.91
2019-03-18T00:42:00.399Z,96326.02
2019-03-18T00:44:26.436Z,96334.41
2019-03-18T00:46:52.248Z,96338.59
2019-03-18T00:49:18.103Z,96349.39
2019-03-18T00:51:43.913Z,96348.86
2019-03-18T00:54:09.725Z,96360.57
2019-03-18T00:56:35.586Z,96351.67
2019-03-18T00:59:01.378Z,96354.34
2019-03-18T01:01:27.196Z,96354.30
2019-03-18T01:03:53.037Z,96368.50
2019-03-18T01:06:18.943Z,96362.78
2019-03-18T01:08:45.011Z,96357.06
2019-03-18T01:11:10.842Z,96369.18
2019-03-18T01:13:36.676Z,96369.18
2019-03-18T01:16:02.707Z,96345.84
2019-03-18T01:18:28.529Z,96357.59
2019-03-18T01:20:54.364Z,96360.00
2019-03-18T01:23:20.200Z,96352.52
2019-03-18T01:25:46.228Z,96351.98
2019-03-18T01:28:12.070Z,96357.74
2019-03-18T01:30:37.897Z,96359.05
2019-03-18T01:33:50.592Z,96367.97
2019-03-18T01:36:16.521Z,96375.13
2019-03-18T01:38:42.438Z,96377.49
2019-03-18T01:41:08.266Z,96389.55
2019-03-18T01:43:34.092Z,96396.61
2019-03-18T01:45:59.960Z,96396.58
2019-03-18T01:48:25.786Z,96401.59
2019-03-18T01:50:51.609Z,96416.05
2019-03-18T01:53:17.425Z,96424.94
2019-03-18T01:55:43.253Z,96421.80
2019-03-18T01:58:09.103Z,96409.33
2019-03-18T02:00:35.033Z,96405.41
2019-03-18T02:03:00.879Z,96408.55
2019-03-18T02:05:26.702Z,96412.44
2019-03-18T02:07:52.526Z,96407.75
2019-03-18T02:10:18.342Z,96407.80
2019-03-18T02:12:44.275Z,96399.75
2019-03-18T02:15:11.397Z,96394.58
2019-03-18T02:17:37.208Z,96395.87
2019-03-18T02:20:06.340Z,96397.46
2019-03-18T02:22:32.154Z,96407.34
2019-03-18T02:24:57.981Z,96417.80
2019-03-18T02:27:23.794Z,96433.95
2019-03-18T02:29:49.638Z,96433.41
2019-03-18T02:32:15.441Z,96432.32
2019-03-18T02:34:41.259Z,96434.43
2019-03-18T02:37:07.108Z,96444.58
2019-03-18T02:39:32.915Z,96439.08
2019-03-18T02:41:58.736Z,96433.05
2019-03-18T02:44:24.548Z,96445.61
2019-03-18T02:46:50.491Z,96439.33
2019-03-18T02:49:16.319Z,96444.05
2019-03-18T02:51:42.153Z,96441.94
2019-03-18T02:54:07.953Z,96449.97
2019-03-18T02:56:33.752Z,96448.66
2019-03-18T02:58:59.585Z,96445.20
2019-03-18T03:01:25.401Z,96437.89
2019-03-18T03:03:51.224Z,96437.92
2019-03-18T03:06:17.039Z,96437.42
2019-03-18T03:08:42.873Z,96443.45
2019-03-18T03:11:08.693Z,96440.61
2019-03-18T03:13:34.651Z,96434.39
2019-03-18T03:16:00.441Z,96434.39
2019-03-18T03:18:26.271Z,96434.63
2019-03-18T03:20:52.080Z,96434.38
2019-03-18T03:23:17.930Z,96451.61
2019-03-18T03:25:43.773Z,96449.00
2019-03-18T03:28:09.586Z,96453.16
2019-03-18T03:30:35.429Z,96459.94
2019-03-18T03:33:01.280Z,96456.30
2019-03-18T03:35:27.126Z,96465.66
2019-03-18T03:37:52.938Z,96470.33
2019-03-18T03:40:18.773Z,96471.41
2019-03-18T03:42:44.605Z,96467.22
2019-03-18T03:45:11.946Z,96471.66
2019-03-18T03:47:37.750Z,96475.33
2019-03-18T03:50:06.310Z,96465.19
2019-03-18T03:52:32.131Z,96474.83
2019-03-18T03:54:57.934Z,96476.92
2019-03-18T03:57:23.983Z,96470.40
2019-03-18T03:59:49.818Z,96475.38
2019-03-18T04:02:15.664Z,96482.69
2019-03-18T04:04:41.490Z,96480.07
2019-03-18T04:07:07.430Z,96480.59
2019-03-18T04:09:33.321Z,96482.42
2019-03-18T04:11:59.288Z,96480.62
2019-03-18T04:14:27.197Z,96486.66
2019-03-18T04:17:01.561Z,96490.08
2019-03-18T04:19:20.756Z,96484.36
2019-03-18T04:21:50.389Z,96487.25
2019-03-18T04:24:14.443Z,96491.71
2019-03-18T04:26:40.285Z,96498.48
2019-03-18T04:29:06.210Z,96493.31
2019-03-18T04:31:32.029Z,96495.92
2019-03-18T04:33:57.864Z,96507.92
2019-03-18T04:36:23.795Z,96499.30
2019-03-18T04:38:49.639Z,96505.84
2019-03-18T04:41:15.466Z,96500.64
2019-03-18T04:43:41.405Z,96495.47
2019-03-18T04:46:07.246Z,96488.93
2019-03-18T04:48:33.089Z,96501.47
2019-03-18T04:50:58.934Z,96488.70
2019-03-18T04:53:24.773Z,96477.20
2019-03-18T04:55:50.782Z,96475.63
2019-03-18T04:58:16.728Z,96478.01
2019-03-18T05:00:42.558Z,96497.11
2019-03-18T05:03:08.385Z,96504.66
2019-03-18T05:05:34.231Z,96511.70
2019-03-18T05:08:00.205Z,96510.93
2019-03-18T05:10:26.074Z,96512.23
2019-03-18T05:12:51.905Z,96512.25
2019-03-18T05:15:17.797Z,96516.97
2019-03-18T05:17:43.634Z,96507.32
2019-03-18T05:20:10.468Z,96507.06
2019-03-18T05:22:36.305Z,96515.09
2019-03-18T05:25:03.333Z,96518.19
2019-03-18T05:27:29.182Z,96516.91
2019-03-18T05:29:55.090Z,96529.45
2019-03-18T05:32:20.909Z,96529.22
2019-03-18T05:34:46.773Z,96532.63
2019-03-18T05:37:12.695Z,96543.83
2019-03-18T05:39:38.525Z,96544.62
2019-03-18T05:42:04.356Z,96548.56
2019-03-18T05:44:30.169Z,96541.27
2019-03-18T05:46:55.996Z,96538.39
2019-03-18T05:49:21.810Z,96537.58
2019-03-18T05:51:47.650Z,96545.15
2019-03-18T05:54:13.582Z,96540.43
2019-03-18T05:56:39.433Z,96540.48
2019-03-18T05:59:05.241Z,96540.00
2019-03-18T06:01:31.048Z,96539.17
2019-03-18T06:03:56.868Z,96549.30
2019-03-18T06:06:22.765Z,96552.70
2019-03-18T06:08:48.713Z,96569.88
2019-03-18T06:11:14.516Z,96574.53
2019-03-18T06:13:40.413Z,96579.48
2019-03-18T06:16:06.237Z,96581.80
2019-03-18T06:18:32.093Z,96582.59
2019-03-18T06:20:57.920Z,96592.52
2019-03-18T06:23:23.759Z,96581.55
2019-03-18T06:25:49.572Z,96582.05
2019-03-18T06:28:15.415Z,96579.17
2019-03-18T06:30:41.241Z,96583.07
2019-03-18T06:33:08.049Z,96584.41
2019-03-18T06:35:33.889Z,96582.62
2019-03-18T06:37:59.839Z,96587.83
2019-03-18T06:40:25.666Z,96578.94
2019-03-18T06:42:51.592Z,96576.05
2019-03-18T06:45:17.425Z,96576.84
2019-03-18T06:47:43.243Z,96577.84
2019-03-18T06:50:10.162Z,96576.27
2019-03-18T06:52:36.078Z,96571.33
2019-03-18T06:55:02.206Z,96576.28
2019-03-18T06:57:28.115Z,96583.58
2019-03-18T06:59:53.958Z,96579.69
2019-03-18T07:02:19.769Z,96583.58
2019-03-18T07:04:45.960Z,96580.13
2019-03-18T07:07:11.781Z,96589.75
2019-03-18T07:09:37.687Z,96589.41
2019-03-18T07:12:03.508Z,96586.75
2019-03-18T07:14:29.327Z,96589.26
2019-03-18T07:16:55.264Z,96597.30
2019-03-18T07:19:21.171Z,96595.41
2019-03-18T07:21:46.989Z,96587.70
2019-03-18T07:24:12.795Z,96588.63
2019-03-18T07:26:38.622Z,96592.67
2019-03-18T07:29:04.453Z,96591.79
2019-03-18T07:31:30.275Z,96593.17
2019-03-18T07:33:56.179Z,96605.36
2019-03-18T07:36:22.004Z,96610.56
2019-03-18T07:38:47.950Z,96607.98
2019-03-18T07:41:14.142Z,96589.52
2019-03-18T07:43:39.969Z,96614.13
2019-03-18T07:46:05.784Z,96615.19
2019-03-18T07:48:31.756Z,96619.36
2019-03-18T07:50:57.628Z,96617.44
2019-03-18T07:53:23.540Z,96620.33
2019-03-18T07:55:49.362Z,96627.09
2019-03-18T07:58:15.317Z,96626.31
2019-03-18T08:00:41.465Z,96635.20
2019-03-18T08:03:07.302Z,96638.25
2019-03-18T08:05:33.123Z,96644.56
2019-03-18T08:07:58.963Z,96641.06
2019-03-18T08:10:24.988Z,96649.99
2019-03-18T08:12:50.843Z,96655.28
2019-03-18T08:15:16.699Z,96658.20
2019-03-18T08:17:42.523Z,96651.27
2019-03-18T08:20:09.549Z,96656.00
2019-03-18T08:22:35.356Z,96663.77
2019-03-18T08:25:01.279Z,96666.91
2019-03-18T08:27:27.097Z,96676.91
2019-03-18T08:29:52.913Z,96675.38
2019-03-18T08:32:18.727Z,96687.42
2019-03-18T08:34:44.704Z,96681.77
2019-03-18T08:37:10.639Z,96695.63
2019-03-18T08:39:36.469Z,96693.58
2019-03-18T08:42:02.411Z,96701.73
2019-03-18T08:44:28.334Z,96711.28
2019-03-18T08:46:54.259Z,96716.45
2019-03-18T08:49:20.075Z,96728.22
2019-03-18T08:51:45.893Z,96723.06
2019-03-18T08:54:11.825Z,96721.55
2019-03-18T08:56:37.650Z,96713.75
2019-03-18T08:59:03.488Z,96735.73
2019-03-18T09:01:29.419Z,96727.04
2019-03-18T09:03:55.240Z,96734.05
2019-03-18T09:06:21.097Z,96726.41
2019-03-18T09:08:46.916Z,96723.74
2019-03-18T09:11:12.747Z,96737.05
2019-03-18T09:13:38.655Z,96744.78
2019-03-18T09:16:04.473Z,96737.22
2019-03-18T09:18:30.322Z,96734.33
2019-03-18T09:20:56.128Z,96730.15
2019-03-18T09:23:21.965Z,96730.97
2019-03-18T09:25:47.770Z,96728.27
2019-03-18T09:28:13.634Z,96725.15
2019-03-18T09:30:39.467Z,96720.55
2019-03-18T09:33:05.300Z,96719.89
2019-03-18T09:35:31.127Z,96717.41
2019-03-18T09:37:57.187Z,96709.37
2019-03-18T09:40:23.033Z,96720.28
2019-03-18T09:42:48.840Z,96710.28
2019-03-18T09:45:18.222Z,96725.02
2019-03-18T09:47:44.225Z,96712.97
2019-03-18T09:50:10.607Z,96712.60
2019-03-18T09:52:36.481Z,96712.34
2019-03-18T09:55:04.009Z,96720.86
2019-03-18T09:57:30.075Z,96710.84
2019-03-18T09:59:55.924Z,96703.06
2019-03-18T10:02:21.849Z,96700.50
2019-03-18T10:04:47.689Z,96698.73
2019-03-18T10:07:13.835Z,96702.96
2019-03-18T10:09:39.657Z,96712.84
2019-03-18T10:12:05.495Z,96722.41
2019-03-18T10:14:31.350Z,96704.47
2019-03-18T10:17:08.704Z,96705.73
2019-03-18T10:19:33.559Z,96696.72
2019-03-18T10:21:52.613Z,96714.61
2019-03-18T10:24:18.447Z,96709.38
2019-03-18T10:26:44.460Z,96701.72
2019-03-18T10:29:10.269Z,96713.12
2019-03-18T10:31:36.217Z,96716.70
2019-03-18T10:34:02.120Z,96694.42
2019-03-18T10:36:28.089Z,96709.75
2019-03-18T10:38:53.926Z,96714.11
2019-03-18T10:41:19.775Z,96719.77
2019-03-18T10:43:45.804Z,96728.39
2019-03-18T10:46:11.626Z,96716.61
2019-03-18T10:48:37.425Z,96730.81
2019-03-18T10:51:03.364Z,96727.32
2019-03-18T10:53:29.294Z,96728.30
2019-03-18T10:56:06.986Z,96726.13
2019-03-18T10:58:22.972Z,96732.66
2019-03-18T11:00:48.792Z,96729.55
2019-03-18T11:03:14.639Z,96738.73
2019-03-18T11:05:40.537Z,96739.30
2019-03-18T11:08:06.462Z,96739.75
2019-03-18T11:10:32.291Z,96747.48
2019-03-18T11:12:58.229Z,96755.63
2019-03-18T11:15:24.055Z,96745.77
2019-03-18T11:17:49.989Z,96746.67
2019-03-18T11:20:15.922Z,96748.86
2019-03-18T11:22:41.949Z,96760.02
2019-03-18T11:25:10.186Z,96734.30
2019-03-18T11:27:36.038Z,96758.37
2019-03-18T11:30:03.966Z,96760.59
2019-03-18T11:32:29.828Z,96755.58
2019-03-18T11:34:55.836Z,96760.02
2019-03-18T11:37:21.761Z,96765.96
2019-03-18T11:39:47.593Z,96764.30
2019-03-18T11:42:13.534Z,96761.53
2019-03-18T11:44:39.370Z,96770.95
2019-03-18T11:47:05.202Z,96767.28
2019-03-18T11:49:39.539Z,96768.28
2019-03-18T11:51:58.992Z,96774.34
2019-03-18T11:54:24.946Z,96777.00
2019-03-18T11:56:51.119Z,96767.75
2019-03-18T11:59:16.937Z,96784.50
2019-03-18T12:01:42.795Z,96799.44
2019-03-18T12:04:08.663Z,96792.34
2019-03-18T12:06:34.572Z,96780.34
2019-03-18T12:09:00.577Z,96781.49
2019-03-18T12:11:26.532Z,96787.80
2019-03-18T12:13:52.364Z,96776.56
2019-03-18T12:16:18.289Z,96783.20
2019-03-18T12:18:44.104Z,96774.53
2019-03-18T12:21:09.959Z,96774.52
2019-03-18T12:23:35.771Z,96763.46
2019-03-18T12:26:01.734Z,96769.02
2019-03-18T12:28:27.651Z,96766.27
2019-03-18T12:30:53.479Z,96768.05
2019-03-18T12:33:19.318Z,96765.06
2019-03-18T12:35:45.254Z,96769.36
2019-03-18T12:38:11.101Z,96767.84
2019-03-18T12:40:36.931Z,96768.63
2019-03-18T12:43:02.877Z,96761.77
2019-03-18T12:45:28.716Z,96771.30
2019-03-18T12:47:54.558Z,96770.98
2019-03-18T12:50:55.116Z,96772.25
2019-03-18T12:52:51.731Z,96774.34
2019-03-18T12:55:17.740Z,96780.78
2019-03-18T12:57:43.662Z,96746.53
2019-03-18T13:00:16.024Z,96786.85
2019-03-18T13:02:41.938Z,96790.16
2019-03-18T13:05:09.079Z,96787.59
2019-03-18T13:07:35.137Z,96789.33
2019-03-18T13:10:00.974Z,96787.69
2019-03-18T13:12:27.012Z,96777.58
2019-03-18T13:14:52.961Z,96783.72
2019-03-18T13:17:18.778Z,96782.30
2019-03-18T13:19:44.616Z,96784.17
2019-03-18T13:22:10.469Z,96780.25
2019-03-18T13:24:36.387Z,96780.53
2019-03-18T13:27:02.416Z,96779.00
2019-03-18T13:29:28.270Z,96791.43
2019-03-18T13:31:54.182Z,96799.70
2019-03-18T13:34:20.016Z,96798.10
2019-03-18T13:36:45.951Z,96794.05
2019-03-18T13:39:11.793Z,96792.53
2019-03-18T13:41:37.872Z,96801.50
2019-03-18T13:44:03.676Z,96794.48
2019-03-18T13:46:29.625Z,96792.73
2019-03-18T13:48:55.465Z,96809.19
2019-03-18T13:51:21.468Z,96817.94
2019-03-18T13:53:47.365Z,96821.88
2019-03-18T13:56:13.305Z,96814.22
2019-03-18T13:58:39.228Z,96818.95
2019-03-18T14:01:05.195Z,96814.91
2019-03-18T14:03:31.116Z,96821.83
2019-03-18T14:05:57.076Z,96821.00
2019-03-18T14:08:23.004Z,96811.68
2019-03-18T14:10:48.876Z,96814.87
2019-03-18T14:13:14.696Z,96814.09
2019-03-18T14:15:40.514Z,96811.70
2019-03-18T14:18:06.665Z,96811.69
2019-03-18T14:20:32.518Z,96813.80
2019-03-18T14:22:58.357Z,96811.53
2019-03-18T14:25:24.178Z,96812.98
2019-03-18T14:27:50.023Z,96812.46
2019-03-18T14:30:19.668Z,96810.17
2019-03-18T14:32:45.530Z,96817.95
2019-03-18T14:35:11.454Z,96809.61
2019-03-18T14:37:37.395Z,96826.83
2019-03-18T14:40:11.419Z,96830.48
2019-03-18T14:42:37.276Z,96844.81
2019-03-18T14:45:06.385Z,96845.02
2019-03-18T14:47:32.222Z,96836.56
2019-03-18T14:49:58.070Z,96838.26
2019-03-18T14:52:24.182Z,96838.03
2019-03-18T14:54:50.125Z,96841.31
2019-03-18T14:57:15.938Z,96841.33
2019-03-18T14:59:41.758Z,96835.22
2019-03-18T15:02:07.582Z,96835.98
2019-03-18T15:04:33.421Z,96847.22
2019-03-18T15:06:59.255Z,96845.25
2019-03-18T15:09:25.119Z,96845.20
2019-03-18T15:11:51.043Z,96848.41
2019-03-18T15:14:16.892Z,96846.16
2019-03-18T15:16:42.726Z,96848.66
2019-03-18T15:19:08.572Z,96848.45
2019-03-18T15:21:34.399Z,96850.92
2019-03-18T15:24:00.265Z,96849.97
2019-03-18T15:26:26.084Z,96850.65
2019-03-18T15:28:51.920Z,96847.41
2019-03-18T15:31:17.862Z,96842.00
2019-03-18T15:33:43.695Z,96842.69
2019-03-18T15:36:09.652Z,96846.15
2019-03-18T15:38:35.473Z,96849.70
2019-03-18T15:41:01.343Z,96849.92
2019-03-18T15:43:27.256Z,96872.83
2019-03-18T15:45:53.104Z,96877.19
2019-03-18T15:48:18.910Z,96876.45
2019-03-18T15:50:44.767Z,96893.97
2019-03-18T15:53:10.617Z,96910.67
2019-03-18T15:55:36.667Z,96905.47
2019-03-18T15:58:02.526Z,96906.45
2019-03-18T16:00:29.473Z,96902.97
2019-03-18T16:02:55.426Z,96902.97
2019-03-18T16:05:21.357Z,96899.53
2019-03-18T16:07:47.211Z,96895.86
2019-03-18T16:10:14.133Z,96901.63
2019-03-18T16:12:39.977Z,96893.77
2019-03-18T16:15:08.654Z,96897.06
2019-03-18T16:17:34.527Z,96900.95
2019-03-18T16:20:00.391Z,96900.13
2019-03-18T16:22:26.185Z,96905.13
2019-03-18T16:24:52.032Z,96904.33
2019-03-18T16:27:17.853Z,96904.85
2019-03-18T16:29:43.689Z,96905.41
2019-03-18T16:32:11.489Z,96908.31
2019-03-18T16:34:37.372Z,96910.94
2019-03-18T16:37:03.304Z,96924.47
2019-03-18T16:39:29.156Z,96925.00
2019-03-18T16:41:55.081Z,96927.24
2019-03-18T16:44:21.054Z,96921.75
2019-03-18T16:46:46.993Z,96922.08
2019-03-18T16:49:12.914Z,96923.44
2019-03-18T16:51:38.749Z,96923.41
2019-03-18T16:54:04.594Z,96925.54
2019-03-18T16:56:30.524Z,96928.50
2019-03-18T16:58:56.471Z,96928.95
2019-03-18T17:01:22.319Z,96940.13
2019-03-18T17:03:48.260Z,96938.06
2019-03-18T17:06:14.112Z,96942.80
2019-03-18T17:08:40.164Z,96947.77
2019-03-18T17:11:06.148Z,96950.63
2019-03-18T17:13:32.089Z,96962.17
2019-03-18T17:15:57.937Z,96960.13
2019-03-18T17:18:23.800Z,96975.27
2019-03-18T17:20:49.746Z,96980.23
2019-03-18T17:23:15.695Z,96992.01
2019-03-18T17:25:41.624Z,96988.63
2019-03-18T17:28:07.482Z,96987.38
2019-03-18T17:30:33.318Z,96982.92
2019-03-18T17:32:59.165Z,96982.16
2019-03-18T17:35:25.097Z,96984.76
2019-03-18T17:37:50.946Z,96992.83
2019-03-18T17:40:17.687Z,96995.44
2019-03-18T17:42:43.509Z,96992.58
2019-03-18T17:45:11.550Z,96995.70
2019-03-18T17:47:37.491Z,97000.92
2019-03-18T17:50:09.627Z,97008.80
2019-03-18T17:52:35.476Z,97008.28
2019-03-18T17:55:01.550Z,97014.54
2019-03-18T17:57:27.601Z,97022.63
2019-03-18T17:59:53.542Z,97021.05
2019-03-18T18:02:19.396Z,97028.13
2019-03-18T18:04:45.349Z,97030.21
2019-03-18T18:07:11.323Z,97039.88
2019-03-18T18:09:37.251Z,97041.44
2019-03-18T18:12:03.089Z,97045.11
2019-03-18T18:14:29.093Z,97043.00
2019-03-18T18:16:54.912Z,97052.16
2019-03-18T18:19:20.730Z,97057.39
2019-03-18T18:21:46.559Z,97059.48
2019-03-18T18:24:12.516Z,97058.19
2019-03-18T18:26:38.350Z,97057.66
2019-03-18T18:29:04.160Z,97061.28
2019-03-18T18:31:29.978Z,97068.60
2019-03-18T18:33:55.787Z,97068.86
2019-03-18T18:36:21.737Z,97081.41
2019-03-18T18:38:47.574Z,97084.02
2019-03-18T18:41:13.445Z,97082.45
2019-03-18T18:43:39.281Z,97084.27
2019-03-18T18:46:05.204Z,97092.63
2019-03-18T18:48:31.190Z,97094.46
2019-03-18T18:50:57.060Z,97096.26
2019-03-18T18:53:26.569Z,97094.25
2019-03-18T18:55:50.645Z,97091.91
2019-03-18T18:58:16.475Z,97090.31
2019-03-18T19:00:42.314Z,97090.78
2019-03-18T19:03:08.247Z,97088.03
2019-03-18T19:05:34.193Z,97080.20
2019-03-18T19:08:00.042Z,97088.03
2019-03-18T19:10:25.958Z,97091.87
2019-03-18T19:12:51.820Z,97097.66
2019-03-18T19:15:34.980Z,97095.50
2019-03-18T19:18:00.913Z,97107.56
2019-03-18T19:20:26.741Z,97114.53
2019-03-18T19:22:52.892Z,97114.11
2019-03-18T19:25:18.867Z,97118.80
2019-03-18T19:27:44.691Z,97123.56
2019-03-18T19:30:19.042Z,97123.19
2019-03-18T19:32:44.983Z,97130.51
2019-03-18T19:35:10.860Z,97138.54
2019-03-18T19:37:36.722Z,97136.44
2019-03-18T19:40:06.178Z,97145.76
2019-03-18T19:42:32.011Z,97144.36
2019-03-18T19:44:57.872Z,97148.53
2019-03-18T19:47:23.716Z,97139.80
2019-03-18T19:49:49.663Z,97140.83
2019-03-18T19:52:15.508Z,97148.06
2019-03-18T19:54:41.358Z,97144.39
2019-03-18T19:57:07.178Z,97142.28
2019-03-18T19:59:34.032Z,97148.33
2019-03-18T20:01:59.877Z,97145.20
2019-03-18T20:04:25.846Z,97146.35
2019-03-18T20:06:51.791Z,97146.33
2019-03-18T20:09:17.732Z,97148.31
2019-03-18T20:11:43.567Z,97152.84
2019-03-18T20:14:09.380Z,97161.28
2019-03-18T20:16:35.601Z,97150.67
2019-03-18T20:19:01.511Z,97154.60
2019-03-18T20:21:27.458Z,97163.66
2019-03-18T20:24:00.626Z,97164.27
2019-03-18T20:26:21.105Z,97167.73
2019-03-18T20:28:46.927Z,97165.69
2019-03-18T20:31:12.779Z,97166.08
2019-03-18T20:33:38.835Z,97174.64
2019-03-18T20:36:04.680Z,97168.77
2019-03-18T20:38:30.646Z,97173.95
2019-03-18T20:40:56.456Z,97179.38
2019-03-18T20:43:22.303Z,97186.08
2019-03-18T20:45:48.108Z,97190.41
2019-03-18T20:48:13.954Z,97185.58
2019-03-18T20:50:39.898Z,97187.53
2019-03-18T20:53:05.756Z,97187.40
2019-03-18T20:55:31.667Z,97184.05
2019-03-18T20:57:57.790Z,97183.86
2019-03-18T21:00:23.715Z,97181.41
2019-03-18T21:02:49.632Z,97185.06
2019-03-18T21:05:15.462Z,97182.46
2019-03-18T21:07:41.386Z,97186.00
2019-03-18T21:10:11.841Z,97190.25
2019-03-18T21:12:37.683Z,97187.50
2019-03-18T21:15:06.005Z,97193.08
2019-03-18T21:17:31.820Z,97200.08
2019-03-18T21:19:57.668Z,97200.12
2019-03-18T21:22:23.482Z,97202.23
2019-03-18T21:24:49.326Z,97201.25
2019-03-18T21:27:15.155Z,97194.67
2019-03-18T21:29:40.997Z,97205.09
2019-03-18T21:32:07.682Z,97206.83
2019-03-18T21:34:33.527Z,97202.23
2019-03-18T21:36:59.401Z,97204.45
2019-03-18T21:39:25.253Z,97205.80
2019-03-18T21:41:51.161Z,97213.83
2019-03-18T21:44:17.006Z,97206.27
2019-03-18T21:46:43.534Z,97209.95
2019-03-18T21:49:09.481Z,97203.10
2019-03-18T21:51:35.333Z,97213.22
2019-03-18T21:54:01.140Z,97213.69
2019-03-18T21:56:26.970Z,97218.21
2019-03-18T21:58:52.802Z,97213.88
2019-03-18T22:01:18.647Z,97210.45
2019-03-18T22:03:44.679Z,97212.98
2019-03-18T22:06:10.510Z,97217.18
2019-03-18T22:08:36.437Z,97220.41
2019-03-18T22:11:02.267Z,97219.16
2019-03-18T22:13:28.232Z,97219.50
2019-03-18T22:15:54.045Z,97228.03
2019-03-18T22:18:19.910Z,97231.84
2019-03-18T22:20:45.713Z,97237.08
2019-03-18T22:23:11.646Z,97231.64
2019-03-18T22:25:37.453Z,97236.20
2019-03-18T22:28:03.506Z,97227.06
2019-03-18T22:30:29.322Z,97237.02
2019-03-18T22:32:55.391Z,97238.92
2019-03-18T22:35:21.320Z,97249.53
2019-03-18T22:37:47.270Z,97250.38
2019-03-18T22:40:15.706Z,97250.05
2019-03-18T22:42:41.642Z,97247.15
2019-03-18T22:45:11.425Z,97254.25
2019-03-18T22:47:37.248Z,97257.37
2019-03-18T22:50:05.912Z,97255.73
2019-03-18T22:52:31.941Z,97251.22
2019-03-18T22:54:57.879Z,97246.61
2019-03-18T22:57:23.799Z,97248.60
2019-03-18T22:59:49.634Z,97248.36
2019-03-18T23:02:15.512Z,97259.70
2019-03-18T23:04:41.293Z,97253.77
2019-03-18T23:07:07.147Z,97258.02
2019-03-18T23:09:32.964Z,97269.29
2019-03-18T23:11:58.800Z,97262.80
2019-03-18T23:14:24.628Z,97250.60
2019-03-18T23:16:50.480Z,97251.66
2019-03-18T23:19:16.286Z,97253.58
2019-03-18T23:21:42.129Z,97257.34
2019-03-18T23:24:07.951Z,97258.53
2019-03-18T23:26:33.815Z,97255.83
2019-03-18T23:28:59.661Z,97259.16
2019-03-18T23:31:25.506Z,97260.97
2019-03-18T23:33:51.325Z,97264.25
2019-03-18T23:36:17.141Z,97263.25
2019-03-18T23:38:42.986Z,97263.70
2019-03-18T23:41:08.789Z,97267.67
2019-03-18T23:43:34.601Z,97276.73
2019-03-18T23:46:00.408Z,97273.86
2019-03-18T23:48:26.285Z,97279.20
2019-03-18T23:50:52.087Z,97279.92
2019-03-18T23:53:17.908Z,97289.09
2019-03-18T23:55:43.744Z,97283.41
2019-03-18T23:58:09.570Z,97286.80
